Latest Weather Observations for Blackall

IDQ60801

Issued at 4:21 am EST Monday 19 November 2018 (issued every 10 minutes, with the page automatically refreshed every 10 minutes)

About weather observations | Map of weather stations | Latest weather observations for QLD | Other Formats
Station Details ID: 036034 Name: BLACKALL AIRPORT Lat: -24.43 Lon: 145.43 Height: 281.3 m
Data from the previous 72 hours. | See also: Recent months at Blackall
Date/Time
EST
Temp
°C
App
Temp
°C
Dew
Point
°C
Rel
Hum
%
Delta-T
°C
Wind Press
QNH
hPa
Press
MSL
hPa
Rain since
9am
mm
Dir  Spd
km/h
Gust
km/h
Spd
kts
Gust
kts
19/04:00am 22.2 18.3 16.5 70 3.5 NE 32 44 17 24 1012.2 1010.4 1.4
19/03:30am 22.5 19.3 16.3 68 3.8 ENE 28 41 15 22 1012.4 1010.6 1.4
19/03:00am 23.0 18.8 15.8 64 4.4 ENE 32 41 17 22 1012.2 1010.4 1.4
19/02:30am 23.5 19.8 15.0 59 5.1 ENE 28 41 15 22 1012.4 1010.6 1.4
19/02:00am 23.8 21.7 15.3 59 5.2 ENE 20 26 11 14 1012.8 1011.0 1.4
19/01:30am 24.3 22.2 15.2 57 5.5 NE 20 33 11 18 1013.0 1011.2 1.4
19/01:00am 23.8 22.8 15.6 60 5.0 NNE 15 22 8 12 1012.4 1010.6 1.4
19/12:30am 24.0 22.1 15.2 58 5.3 ENE 19 26 10 14 1011.8 1010.0 1.4
19/12:00am 23.5 22.0 15.3 60 5.0 NE 17 22 9 12 1011.8 1010.0 1.4
 
Date/Time
EST
Temp
°C
App
Temp
°C
Dew
Point
°C
Rel
Hum
%
Delta-T
°C
Wind Press
QNH
hPa
Press
MSL
hPa
Rain since
9am
mm
Dir  Spd
km/h
Gust
km/h
Spd
kts
Gust
kts
18/11:30pm 24.2 23.2 14.6 55 5.8 E 13 19 7 10 1012.3 1010.5 1.4
18/11:00pm 24.1 22.4 14.8 56 5.6 E 17 20 9 11 1012.4 1010.6 1.4
18/10:30pm 24.5 22.8 14.6 54 6.0 ESE 17 20 9 11 1012.6 1010.8 1.4
18/10:00pm 24.1 22.2 15.3 58 5.3 SE 19 28 10 15 1012.8 1011.0 1.4
18/09:30pm 24.2 22.2 15.4 58 5.4 SE 20 28 11 15 1012.7 1010.9 1.4
18/09:00pm 24.3 22.5 16.0 60 5.1 ESE 20 28 11 15 1012.4 1010.6 1.4
18/08:30pm 24.2 21.8 16.5 62 4.8 ENE 24 32 13 17 1011.4 1009.6 1.4
18/08:00pm 24.5 22.9 16.5 61 5.0 ENE 20 24 11 13 1012.2 1010.4 1.4
18/07:30pm 25.0 23.0 16.4 59 5.3 E 22 28 12 15 1012.0 1010.2 1.4
18/07:00pm 25.1 23.6 16.3 58 5.5 ESE 19 28 10 15 1011.9 1010.1 1.4
18/06:30pm 26.2 25.7 17.0 57 5.8 SSE 15 22 8 12 1012.1 1010.3 1.2
18/06:00pm 28.0 24.1 15.6 46 7.7 SSW 30 44 16 24 1010.9 1009.1 1.0
18/05:30pm 26.0 23.0 16.8 57 5.8 SE 28 39 15 21 1009.1 1007.3 0.8
18/05:00pm 30.4 26.6 12.3 33 10.8 SE 24 37 13 20 1008.6 1006.8 0.0
18/04:52pm 31.2 27.9 11.6 30 11.6 SE 20 35 11 19 1008.6 1006.8 0.0
18/04:30pm 36.6 32.8 7.6 17 16.5 NNW 17 30 9 16 1008.0 1006.2 0.0
18/04:00pm 35.8 31.5 7.0 17 16.2 NNW 19 33 10 18 1008.1 1006.3 0.0
18/03:30pm 36.1 32.2 7.2 17 16.3 NNW 17 28 9 15 1008.2 1006.4 0.0
18/03:00pm 36.3 31.5 7.4 17 16.4 NNW 22 35 12 19 1008.5 1006.7 0.0
18/02:30pm 37.2 32.9 7.2 16 17.0 NNW 19 30 10 16 1009.0 1007.2 0.0
18/02:00pm 37.3 33.1 8.2 17 16.8 NNE 20 32 11 17 1009.6 1007.8 0.0
18/01:30pm 35.8 32.1 7.8 18 15.9 N 17 30 9 16 1010.3 1008.5 0.0
18/01:00pm 36.0 33.6 8.7 19 15.7 W 11 24 6 13 1010.9 1009.1 0.0
18/12:30pm 36.1 32.0 8.8 19 15.8 NW 20 33 11 18 1011.5 1009.7 0.0
18/12:00pm 36.0 32.1 8.7 19 15.7 NNW 19 33 10 18 1011.8 1010.0 0.0
18/11:30am 35.8 31.9 9.3 20 15.4 NNW 20 35 11 19 1012.2 1010.4 0.0
18/11:00am 35.0 30.9 8.7 20 15.1 NNW 20 33 11 18 1012.6 1010.8 0.0
18/10:30am 33.5 28.5 8.2 21 14.3 N 24 54 13 29 1012.7 1010.9 0.0
18/10:00am 33.6 28.7 8.3 21 14.3 N 24 37 13 20 1012.7 1010.9 0.0
18/09:30am 32.8 27.9 8.3 22 13.8 N 24 37 13 20 1012.8 1011.0 0.0
18/09:00am 32.0 28.1 10.7 27 12.4 N 22 32 12 17 1012.9 1011.1 1.6
18/08:30am 30.3 26.7 11.8 32 10.9 N 22 30 12 16 1012.9 1011.1 1.6
18/08:00am 28.3 25.6 13.0 39 9.1 NNE 19 26 10 14 1013.0 1011.2 1.6
18/07:30am 26.8 25.9 14.9 48 7.3 NNE 13 19 7 10 1012.7 1010.9 1.4
18/07:00am 24.8 26.0 17.3 63 4.7 ENE 7 11 4 6 1012.4 1010.6 1.4
18/06:30am 23.1 24.3 17.3 70 3.6 E 7 9 4 5 1012.1 1010.3 1.4
18/06:00am 22.5 24.3 17.4 73 3.2 ENE 4 6 2 3 1011.8 1010.0 1.4
18/05:30am 22.6 24.0 17.3 72 3.3 ENE 6 7 3 4 1011.6 1009.8 1.4
18/05:00am 22.5 23.3 17.2 72 3.3 E 9 11 5 6 1011.3 1009.5 1.4
18/04:30am 22.7 22.6 16.9 70 3.6 E 13 17 7 9 1010.9 1009.1 1.4
18/04:00am 23.0 22.9 17.0 69 3.7 E 13 17 7 9 1010.9 1009.1 1.4
18/03:30am 23.0 22.5 17.0 69 3.7 E 15 20 8 11 1010.8 1009.0 1.4
18/03:00am 23.2 22.2 16.7 67 4.0 E 17 22 9 12 1010.9 1009.1 1.4
18/02:30am 23.6 22.0 16.4 64 4.4 E 20 28 11 15 1010.7 1008.9 1.4
18/02:00am 23.8 22.3 16.3 63 4.6 ESE 19 24 10 13 1010.9 1009.1 1.4
18/01:30am 23.5 23.0 15.8 62 4.7 ESE 13 20 7 11 1011.2 1009.4 1.4
18/01:00am 24.1 23.3 16.1 61 4.9 SE 15 19 8 10 1011.5 1009.7 1.4
18/12:30am 24.8 23.3 15.4 56 5.7 E 17 28 9 15 1011.2 1009.4 1.4
18/12:00am 26.2 24.5 14.6 48 7.0 ENE 17 20 9 11 1011.7 1009.9 1.4
 
Date/Time
EST
Temp
°C
App
Temp
°C
Dew
Point
°C
Rel
Hum
%
Delta-T
°C
Wind Press
QNH
hPa
Press
MSL
hPa
Rain since
9am
mm
Dir  Spd
km/h
Gust
km/h
Spd
kts
Gust
kts
17/11:30pm 26.2 24.2 14.0 47 7.3 NE 17 24 9 13 1011.8 1010.0 1.4
17/11:00pm 26.1 24.2 14.2 48 7.2 NNE 17 22 9 12 1011.8 1010.0 1.4
17/10:30pm 26.2 24.6 15.0 50 6.8 NE 17 24 9 13 1011.7 1009.9 1.4
17/10:00pm 26.1 24.2 15.2 51 6.7 NNE 19 24 10 13 1012.0 1010.2 1.4
17/09:30pm 26.4 25.6 16.1 53 6.4 E 15 19 8 10 1012.5 1010.7 1.4
17/09:00pm 26.2 25.9 16.4 54 6.1 E 13 17 7 9 1012.9 1011.1 1.4
17/08:30pm 27.1 27.2 15.5 49 7.2 N 9 15 5 8 1012.5 1010.7 1.4
17/08:00pm 26.4 26.9 16.6 55 6.1 N 9 13 5 7 1011.7 1009.9 1.4
17/07:30pm 26.3 26.4 17.4 58 5.6 ENE 13 17 7 9 1010.9 1009.1 1.4
17/07:00pm 26.2 26.2 18.1 61 5.2 E 15 17 8 9 1010.9 1009.1 1.4
17/06:30pm 26.7 27.3 16.9 55 6.2 SW 9 17 5 9 1011.3 1009.5 1.4
17/06:00pm 26.0 26.9 17.6 60 5.3 SW 9 17 5 9 1011.5 1009.7 1.4
17/05:30pm 25.6 25.3 17.3 60 5.2 SSW 15 20 8 11 1011.2 1009.4 1.2
17/05:00pm 28.5 25.6 15.1 44 8.3 SE 24 35 13 19 1009.7 1007.9 0.6
17/04:30pm 25.7 22.2 16.5 56 5.7 SSE 30 41 16 22 1010.0 1008.2 0.6
17/04:00pm 27.8 22.2 14.4 43 8.2 SSE 37 54 20 29 1009.9 1008.1 0.0
17/03:52pm 28.5 22.6 12.4 37 9.5 S 35 54 19 29 1009.6 1007.8 0.0
17/03:40pm 31.4 28.1 9.6 26 12.5 NNE 17 44 9 24 1009.8 1008.0 0.0
17/03:30pm 36.0 32.9 8.7 19 15.7 N 15 32 8 17 1009.2 1007.4 0.0
17/03:00pm 37.7 34.1 8.5 17 16.9 NNW 17 30 9 16 1009.2 1007.4 0.0
17/02:30pm 36.6 33.0 8.4 18 16.2 NNW 17 28 9 15 1009.9 1008.1 0.0
17/02:00pm 36.5 32.7 7.5 17 16.5 NW 17 28 9 15 1010.5 1008.7 0.0
17/01:30pm 36.6 33.8 8.4 18 16.2 NNW 13 19 7 10 1011.0 1009.2 0.0
17/01:00pm 36.6 33.6 9.2 19 16.0 NNW 15 30 8 16 1011.6 1009.8 0.0
17/12:30pm 36.1 32.8 9.6 20 15.5 NNW 17 28 9 15 1012.2 1010.4 0.0
17/12:00pm 35.0 31.1 9.4 21 14.8 N 20 35 11 19 1012.5 1010.7 0.0
17/11:30am 34.6 30.6 9.1 21 14.7 NNW 20 32 11 17 1013.0 1011.2 0.0
17/11:00am 34.2 29.3 10.1 23 14.1 NNW 26 37 14 20 1013.4 1011.6 0.0
17/10:30am 33.6 29.1 10.2 24 13.6 NNW 24 33 13 18 1013.7 1012.0 0.0
17/10:00am 32.5 27.9 11.1 27 12.6 NNW 26 41 14 22 1014.0 1012.3 0.0
17/09:30am 31.1 26.1 11.0 29 11.7 N 28 41 15 22 1014.2 1012.4 0.0
17/09:00am 30.1 25.1 11.1 31 11.1 NNW 28 39 15 21 1014.0 1012.3 0.0
17/08:30am 29.2 24.2 10.8 32 10.6 N 28 39 15 21 1014.0 1012.3 0.0
17/08:00am 29.1 24.0 10.7 32 10.6 N 28 39 15 21 1013.9 1012.2 0.0
17/07:30am 28.2 24.2 10.4 33 10.2 NNE 22 32 12 17 1013.8 1012.1 0.0
17/07:00am 27.1 23.5 9.9 34 9.7 NNE 19 24 10 13 1013.5 1011.7 0.0
17/06:30am 26.3 23.5 10.0 36 9.2 NNE 15 19 8 10 1013.1 1011.3 0.0
17/06:00am 25.6 22.9 10.2 38 8.7 NNE 15 20 8 11 1012.8 1011.0 0.0
17/05:30am 23.9 21.2 10.2 42 7.6 NE 15 17 8 9 1012.7 1010.9 0.0
17/05:00am 24.4 22.1 10.3 41 7.9 ENE 13 17 7 9 1012.3 1010.5 0.0
17/04:30am 24.1 22.3 10.7 43 7.5 ENE 11 13 6 7 1011.9 1010.1 0.0
17/04:00am 23.9 23.2 9.9 41 7.8 ESE 4 11 2 6 1012.1 1010.3 0.0
17/03:30am 23.5 22.8 10.2 43 7.4 WSW 4 9 2 5 1011.6 1009.8 0.0
17/03:00am 24.7 22.5 10.9 42 7.8 SSE 13 20 7 11 1011.3 1009.5 0.0
17/02:30am 24.8 23.0 11.0 42 7.8 ENE 11 13 6 7 1010.8 1009.0 0.0
17/02:00am 23.6 22.7 10.6 44 7.3 NE 6 9 3 5 1010.9 1009.1 0.0
17/01:30am 24.0 24.0 9.9 41 7.8 CALM 0 0 0 0 1011.2 1009.4 0.0
17/01:00am 24.8 24.3 10.7 41 8.0 ENE 4 7 2 4 1011.5 1009.7 0.0
17/12:30am 26.0 24.5 10.6 38 8.7 NE 9 13 5 7 1012.0 1010.2 0.0
17/12:00am 25.9 23.8 9.7 36 9.0 NE 11 17 6 9 1012.3 1010.5 0.0
 
Date/Time
EST
Temp
°C
App
Temp
°C
Dew
Point
°C
Rel
Hum
%
Delta-T
°C
Wind Press
QNH
hPa
Press
MSL
hPa
Rain since
9am
mm
Dir  Spd
km/h
Gust
km/h
Spd
kts
Gust
kts
16/11:30pm 25.8 24.6 10.4 38 8.7 WSW 7 9 4 5 1012.5 1010.7 0.0
16/11:00pm 25.4 24.3 10.8 40 8.3 S 7 9 4 5 1012.8 1011.0 0.0
16/10:30pm 25.1 24.4 10.2 39 8.4 SE 4 9 2 5 1013.0 1011.2 0.0
16/10:00pm 26.0 26.1 10.2 37 8.9 CALM 0 0 0 0 1013.0 1011.2 0.0
16/09:30pm 27.5 26.6 10.7 35 9.6 ENE 6 7 3 4 1012.9 1011.1 0.0
16/09:00pm 28.5 27.2 11.1 34 10.1 ENE 9 11 5 6 1012.7 1010.9 0.0
16/08:30pm 28.9 27.6 10.1 31 10.7 NE 7 7 4 4 1012.4 1010.6 0.0
16/08:00pm 29.9 29.4 9.4 28 11.6 N 2 11 1 6 1012.2 1010.4 0.0
16/07:30pm 31.2 30.0 9.4 26 12.4 NNW 6 9 3 5 1012.0 1010.2 0.0
16/07:00pm 31.5 30.3 9.7 26 12.5 NW 6 7 3 4 1011.8 1010.0 0.0
16/06:30pm 32.0 30.4 10.1 26 12.7 WNW 9 13 5 7 1011.6 1009.8 0.0
16/06:00pm 31.9 29.1 10.0 26 12.6 NW 15 22 8 12 1011.5 1009.7 0.0
16/05:30pm 32.4 30.0 9.9 25 13.0 NNW 13 26 7 14 1011.9 1010.1 0.0
16/05:00pm 31.5 27.6 10.8 28 12.1 E 22 35 12 19 1012.0 1010.2 0.0
16/04:30pm 32.7 30.8 8.9 23 13.5 WNW 9 33 5 18 1011.9 1010.1 0.0
16/04:00pm 36.9 34.5 8.7 18 16.3 WNW 11 19 6 10 1011.3 1009.5 0.0
16/03:30pm 35.2 32.9 8.9 20 15.1 NW 11 19 6 10 1011.5 1009.7 0.0
16/03:00pm 34.4 30.5 9.6 22 14.4 NNW 20 39 11 21 1011.8 1010.0 0.0
16/02:30pm 35.8 33.4 10.1 21 15.1 WSW 13 22 7 12 1012.0 1010.2 0.0
16/02:00pm 36.3 33.8 8.2 18 16.1 SSW 11 19 6 10 1012.3 1010.5 0.0
16/01:30pm 34.9 32.1 8.6 20 15.1 N 13 20 7 11 1012.8 1011.0 0.0
16/01:00pm 35.1 32.9 9.5 21 14.9 NNW 11 22 6 12 1013.4 1011.6 0.0
16/12:30pm 35.7 32.7 9.3 20 15.3 ENE 15 28 8 15 1013.9 1012.2 0.0
16/12:00pm 35.7 32.7 10.7 22 14.8 NE 17 28 9 15 1014.6 1012.8 0.0
16/11:30am 34.8 32.7 11.2 24 14.0 NNE 13 26 7 14 1015.3 1013.5 0.0
16/11:00am 34.8 32.4 12.5 26 13.5 NNE 17 28 9 15 1015.9 1014.1 0.0
16/10:30am 33.0 31.0 12.6 29 12.3 N 15 22 8 12 1016.2 1014.4 0.0
16/10:00am 32.9 30.4 13.5 30 11.8 N 19 32 10 17 1016.5 1014.7 0.0
16/09:30am 32.3 29.4 14.0 33 11.2 N 22 32 12 17 1016.4 1014.6 0.0
16/09:00am 30.9 28.0 14.1 36 10.3 N 22 30 12 16 1016.4 1014.6 0.0
16/08:30am 30.9 28.2 14.5 37 10.1 NNE 22 30 12 16 1016.3 1014.5 0.0
16/08:00am 29.6 26.1 14.6 40 9.2 NNE 26 33 14 18 1016.3 1014.5 0.0
16/07:30am 28.2 25.2 13.7 41 8.7 NNE 22 32 12 17 1016.0 1014.2 0.0
16/07:00am 27.2 24.3 12.8 41 8.5 NNE 20 30 11 16 1015.7 1013.9 0.0
16/06:30am 25.9 24.3 11.6 40 8.2 NNE 11 19 6 10 1015.3 1013.5 0.0
16/06:00am 24.4 22.6 10.7 42 7.7 ENE 11 15 6 8 1014.9 1013.1 0.0
16/05:30am 23.4 21.5 10.5 44 7.2 ENE 11 15 6 8 1014.6 1012.8 0.0
16/05:00am 23.3 21.3 10.0 43 7.4 ENE 11 15 6 8 1014.0 1012.3 0.0
16/04:30am 23.2 21.6 10.3 44 7.2 E 9 13 5 7 1013.8 1012.1 0.0

Other Formats:

Comma delimited format used in spreadsheet applications
http://www.bom.gov.au/fwo/IDQ60801/IDQ60801.95351.axf

JavaScript Object Notation format (JSON) in row-major order
http://www.bom.gov.au/fwo/IDQ60801/IDQ60801.95351.json